CheckWX is a tool to help pilots better visualize weather data.  It is not intended as a substitute for an official pre-flight weather briefing.

14:27:51 UTC

KOKC METAR
Will Rogers World Airport
Oklahoma City, Oklahoma, USA
Current

36 mins ago

KOKC 221352Z 19013KT 10SM OVC018 18/16 A2998 RMK AO2 SLP141 T01780156
Observed
Apr-22 @ 13:52 UTC
Wind
  • 190° at 13 KTS
Visibility
10 SM
Flight Rules
MVFR
Cloud Levels
  • Overcast at 1,800' AGL
Temperature
18°C / 64°F
Dewpoint
16°C / 61°F
Humidity
88%
Altimeter
29.98" Hg
Pressure
1015.22 hPa
Previous

1 hour ago

KOKC 221320Z 18013G17KT 10SM SCT015 BKN021 17/15 A2997 RMK AO2 T01670150
Observed
Apr-22 @ 13:20 UTC
Wind
  • 180° at 13 KTS
  • Gusting to 17 KTS
Visibility
10 SM
Flight Rules
MVFR
Cloud Levels
  • Scattered at 1,500' AGL
  • Broken at 2,100' AGL
Temperature
17°C / 63°F
Dewpoint
15°C / 59°F
Humidity
88%
Altimeter
29.97" Hg
Pressure
1014.92 hPa
Previous

2 hours ago

KOKC 221252Z 18013KT 10SM SCT250 16/14 A2995 RMK AO2 SLP133 T01610144
Observed
Apr-22 @ 12:52 UTC
Wind
  • 180° at 13 KTS
Visibility
10 SM
Flight Rules
VFR
Cloud Levels
  • Scattered at 25,000' AGL
Temperature
16°C / 61°F
Dewpoint
14°C / 57°F
Humidity
88%
Altimeter
29.95" Hg
Pressure
1014.22 hPa